sensor_id;sensor_type;location;lat;lon;timestamp;pressure;altitude;pressure_sealevel;temperature;humidity
58018;BME280;43810;50.860;19.226;2023-04-22T00:02:19;98533.84;;;4.92;73.63
58018;BME280;43810;50.860;19.226;2023-04-22T00:04:45;98532.91;;;4.88;74.10
58018;BME280;43810;50.860;19.226;2023-04-22T00:07:12;98527.81;;;4.78;73.80
58018;BME280;43810;50.860;19.226;2023-04-22T00:09:38;98520.59;;;4.84;73.60
58018;BME280;43810;50.860;19.226;2023-04-22T00:12:04;98521.69;;;4.96;72.90
58018;BME280;43810;50.860;19.226;2023-04-22T00:14:30;98530.28;;;5.02;72.68
58018;BME280;43810;50.860;19.226;2023-04-22T00:16:56;98527.03;;;5.05;72.63
58018;BME280;43810;50.860;19.226;2023-04-22T00:19:22;98528.09;;;5.04;72.54
58018;BME280;43810;50.860;19.226;2023-04-22T00:21:49;98526.56;;;4.89;72.06
58018;BME280;43810;50.860;19.226;2023-04-22T00:24:15;98516.91;;;4.85;71.81
58018;BME280;43810;50.860;19.226;2023-04-22T00:26:40;98518.75;;;4.84;71.92
58018;BME280;43810;50.860;19.226;2023-04-22T00:29:06;98520.09;;;4.82;72.50
58018;BME280;43810;50.860;19.226;2023-04-22T00:31:32;98518.75;;;4.84;71.28
58018;BME280;43810;50.860;19.226;2023-04-22T00:33:58;98522.38;;;4.88;70.76
58018;BME280;43810;50.860;19.226;2023-04-22T00:36:23;98524.22;;;5.02;70.47
58018;BME280;43810;50.860;19.226;2023-04-22T00:38:49;98519.63;;;5.07;70.19
58018;BME280;43810;50.860;19.226;2023-04-22T00:41:16;98520.22;;;5.04;70.16
58018;BME280;43810;50.860;19.226;2023-04-22T00:43:42;98522.56;;;4.92;71.65
58018;BME280;43810;50.860;19.226;2023-04-22T00:46:08;98516.50;;;4.78;72.46
58018;BME280;43810;50.860;19.226;2023-04-22T00:48:37;98524.88;;;4.66;73.12
58018;BME280;43810;50.860;19.226;2023-04-22T00:51:04;98518.34;;;4.63;72.90
58018;BME280;43810;50.860;19.226;2023-04-22T00:53:30;98501.00;;;4.62;72.78
58018;BME280;43810;50.860;19.226;2023-04-22T00:55:56;98513.69;;;4.74;72.21
58018;BME280;43810;50.860;19.226;2023-04-22T00:58:27;98517.38;;;4.87;71.58
58018;BME280;43810;50.860;19.226;2023-04-22T01:00:52;98516.63;;;5.00;71.41
58018;BME280;43810;50.860;19.226;2023-04-22T01:03:19;98511.06;;;5.02;71.92
58018;BME280;43810;50.860;19.226;2023-04-22T01:05:47;98509.50;;;5.00;71.33
58018;BME280;43810;50.860;19.226;2023-04-22T01:08:14;98514.94;;;5.04;71.20
58018;BME280;43810;50.860;19.226;2023-04-22T01:10:41;98504.13;;;5.06;70.97
58018;BME280;43810;50.860;19.226;2023-04-22T01:13:07;98518.06;;;5.06;70.97
58018;BME280;43810;50.860;19.226;2023-04-22T01:15:33;98506.16;;;4.95;71.05
58018;BME280;43810;50.860;19.226;2023-04-22T01:17:59;98505.50;;;4.89;71.25
58018;BME280;43810;50.860;19.226;2023-04-22T01:20:29;98502.88;;;4.89;71.04
58018;BME280;43810;50.860;19.226;2023-04-22T01:22:55;98501.81;;;4.90;71.08
58018;BME280;43810;50.860;19.226;2023-04-22T01:25:25;98500.72;;;4.91;71.27
58018;BME280;43810;50.860;19.226;2023-04-22T01:27:52;98500.13;;;4.94;71.38
58018;BME280;43810;50.860;19.226;2023-04-22T01:30:18;98500.41;;;4.93;71.23
58018;BME280;43810;50.860;19.226;2023-04-22T01:32:44;98495.16;;;4.93;70.95
58018;BME280;43810;50.860;19.226;2023-04-22T01:35:10;98501.81;;;4.90;71.02
58018;BME280;43810;50.860;19.226;2023-04-22T01:37:36;98511.06;;;4.88;71.29
58018;BME280;43810;50.860;19.226;2023-04-22T01:40:03;98509.78;;;4.85;71.95
58018;BME280;43810;50.860;19.226;2023-04-22T01:42:29;98499.03;;;4.82;72.27
58018;BME280;43810;50.860;19.226;2023-04-22T01:44:55;98509.41;;;4.78;72.90
58018;BME280;43810;50.860;19.226;2023-04-22T01:47:21;98506.84;;;4.73;73.39
58018;BME280;43810;50.860;19.226;2023-04-22T01:49:47;98515.81;;;4.72;73.11
58018;BME280;43810;50.860;19.226;2023-04-22T01:52:13;98519.19;;;4.59;73.63
58018;BME280;43810;50.860;19.226;2023-04-22T01:54:39;98513.16;;;4.58;73.60
58018;BME280;43810;50.860;19.226;2023-04-22T01:57:11;98521.66;;;4.55;73.58
58018;BME280;43810;50.860;19.226;2023-04-22T01:59:39;98519.88;;;4.51;nan
58018;BME280;43810;50.860;19.226;2023-04-22T02:02:05;98514.13;;;4.49;74.63
58018;BME280;43810;50.860;19.226;2023-04-22T02:04:31;98517.34;;;4.46;75.05
58018;BME280;43810;50.860;19.226;2023-04-22T02:06:57;98522.69;;;4.41;75.31
58018;BME280;43810;50.860;19.226;2023-04-22T02:09:23;98517.81;;;4.34;75.70
58018;BME280;43810;50.860;19.226;2023-04-22T02:11:49;98516.81;;;4.30;76.15
58018;BME280;43810;50.860;19.226;2023-04-22T02:14:15;98512.41;;;4.25;77.03
58018;BME280;43810;50.860;19.226;2023-04-22T02:16:41;98506.75;;;4.18;77.65
58018;BME280;43810;50.860;19.226;2023-04-22T02:19:07;98513.91;;;4.13;77.68
58018;BME280;43810;50.860;19.226;2023-04-22T02:21:33;98513.09;;;3.99;78.17
58018;BME280;43810;50.860;19.226;2023-04-22T02:23:59;98511.81;;;3.96;79.02
58018;BME280;43810;50.860;19.226;2023-04-22T02:26:26;98499.81;;;3.90;79.08
58018;BME280;43810;50.860;19.226;2023-04-22T02:28:52;98503.22;;;3.90;79.04
58018;BME280;43810;50.860;19.226;2023-04-22T02:31:18;98502.88;;;3.97;78.39
58018;BME280;43810;50.860;19.226;2023-04-22T02:33:44;98502.09;;;3.97;77.85
58018;BME280;43810;50.860;19.226;2023-04-22T02:36:10;98501.97;;;3.88;77.75
58018;BME280;43810;50.860;19.226;2023-04-22T02:38:36;98508.91;;;3.79;78.20
58018;BME280;43810;50.860;19.226;2023-04-22T02:41:03;98503.66;;;3.60;79.27
58018;BME280;43810;50.860;19.226;2023-04-22T02:43:28;98494.50;;;3.58;80.14
58018;BME280;43810;50.860;19.226;2023-04-22T02:45:54;98496.16;;;3.53;80.29
58018;BME280;43810;50.860;19.226;2023-04-22T02:48:20;98492.44;;;3.54;80.33
58018;BME280;43810;50.860;19.226;2023-04-22T02:50:46;98500.91;;;3.70;79.53
58018;BME280;43810;50.860;19.226;2023-04-22T02:53:12;98489.25;;;3.76;78.73
58018;BME280;43810;50.860;19.226;2023-04-22T02:55:39;98484.47;;;3.78;78.09
58018;BME280;43810;50.860;19.226;2023-04-22T02:58:05;98508.72;;;3.75;78.08
58018;BME280;43810;50.860;19.226;2023-04-22T03:00:31;98501.03;;;3.79;78.51
58018;BME280;43810;50.860;19.226;2023-04-22T03:02:57;98498.84;;;3.86;78.61
58018;BME280;43810;50.860;19.226;2023-04-22T03:05:23;98497.41;;;3.94;78.23
58018;BME280;43810;50.860;19.226;2023-04-22T03:07:48;98498.47;;;3.92;78.11
58018;BME280;43810;50.860;19.226;2023-04-22T03:10:15;98505.34;;;3.88;77.89
58018;BME280;43810;50.860;19.226;2023-04-22T03:12:40;98505.22;;;3.80;78.10
58018;BME280;43810;50.860;19.226;2023-04-22T03:15:07;98500.47;;;3.82;78.75
58018;BME280;43810;50.860;19.226;2023-04-22T03:17:33;98505.59;;;3.73;78.71
58018;BME280;43810;50.860;19.226;2023-04-22T03:19:59;98502.97;;;3.73;79.02
58018;BME280;43810;50.860;19.226;2023-04-22T03:22:25;98507.72;;;3.71;79.55
58018;BME280;43810;50.860;19.226;2023-04-22T03:24:51;98512.59;;;3.78;79.55
58018;BME280;43810;50.860;19.226;2023-04-22T03:27:16;98505.03;;;3.76;79.63
58018;BME280;43810;50.860;19.226;2023-04-22T03:29:42;98507.94;;;3.75;79.76
58018;BME280;43810;50.860;19.226;2023-04-22T03:32:08;98517.28;;;3.81;79.62
58018;BME280;43810;50.860;19.226;2023-04-22T03:34:34;98499.13;;;3.84;79.24
58018;BME280;43810;50.860;19.226;2023-04-22T03:37:00;98506.22;;;3.84;79.45
58018;BME280;43810;50.860;19.226;2023-04-22T03:39:26;98508.56;;;3.85;79.54
58018;BME280;43810;50.860;19.226;2023-04-22T03:41:51;98504.16;;;3.81;79.52
58018;BME280;43810;50.860;19.226;2023-04-22T03:44:17;98506.28;;;3.79;79.59
58018;BME280;43810;50.860;19.226;2023-04-22T03:46:43;98503.47;;;3.75;79.54
58018;BME280;43810;50.860;19.226;2023-04-22T03:49:09;98511.06;;;3.77;79.74
58018;BME280;43810;50.860;19.226;2023-04-22T03:51:34;98514.75;;;3.76;80.00
58018;BME280;43810;50.860;19.226;2023-04-22T03:54:00;98505.47;;;3.65;80.38
58018;BME280;43810;50.860;19.226;2023-04-22T03:56:26;98510.00;;;3.59;80.64
58018;BME280;43810;50.860;19.226;2023-04-22T03:58:52;98509.63;;;3.66;80.91
58018;BME280;43810;50.860;19.226;2023-04-22T04:01:18;98514.03;;;3.70;80.72
58018;BME280;43810;50.860;19.226;2023-04-22T04:03:44;98517.53;;;3.84;80.72
58018;BME280;43810;50.860;19.226;2023-04-22T04:06:09;98514.69;;;4.00;80.65
58018;BME280;43810;50.860;19.226;2023-04-22T04:08:35;98510.38;;;4.22;80.59
58018;BME280;43810;50.860;19.226;2023-04-22T04:11:01;98511.88;;;4.42;79.85
58018;BME280;43810;50.860;19.226;2023-04-22T04:13:27;98510.84;;;4.71;79.35
58018;BME280;43810;50.860;19.226;2023-04-22T04:15:57;98511.16;;;4.96;78.29
58018;BME280;43810;50.860;19.226;2023-04-22T04:18:24;98526.75;;;5.20;77.33
58018;BME280;43810;50.860;19.226;2023-04-22T04:20:51;98513.94;;;5.41;76.62
58018;BME280;43810;50.860;19.226;2023-04-22T04:23:17;98516.16;;;5.61;76.30
58018;BME280;43810;50.860;19.226;2023-04-22T04:25:42;98514.16;;;5.81;76.26
58018;BME280;43810;50.860;19.226;2023-04-22T04:28:09;98511.19;;;5.96;75.98
58018;BME280;43810;50.860;19.226;2023-04-22T04:30:36;98503.66;;;6.12;75.76
58018;BME280;43810;50.860;19.226;2023-04-22T04:33:03;98512.78;;;6.28;75.48
58018;BME280;43810;50.860;19.226;2023-04-22T04:35:35;98519.53;;;6.42;74.94
58018;BME280;43810;50.860;19.226;2023-04-22T04:38:04;98507.22;;;6.60;74.54
58018;BME280;43810;50.860;19.226;2023-04-22T04:40:31;98516.94;;;6.82;74.91
58018;BME280;43810;50.860;19.226;2023-04-22T04:42:57;98508.06;;;7.09;74.27
58018;BME280;43810;50.860;19.226;2023-04-22T04:45:23;98519.94;;;7.37;74.14
58018;BME280;43810;50.860;19.226;2023-04-22T04:47:49;98519.69;;;7.65;74.94
58018;BME280;43810;50.860;19.226;2023-04-22T04:50:17;98516.75;;;7.92;74.35
58018;BME280;43810;50.860;19.226;2023-04-22T04:52:48;98521.22;;;8.17;72.78
58018;BME280;43810;50.860;19.226;2023-04-22T04:55:15;98515.59;;;8.45;72.61
58018;BME280;43810;50.860;19.226;2023-04-22T04:57:43;98512.09;;;8.70;70.74
58018;BME280;43810;50.860;19.226;2023-04-22T05:00:10;98519.59;;;8.97;70.03
58018;BME280;43810;50.860;19.226;2023-04-22T05:02:36;98514.47;;;9.30;68.47
58018;BME280;43810;50.860;19.226;2023-04-22T05:05:02;98521.78;;;9.63;67.81
58018;BME280;43810;50.860;19.226;2023-04-22T05:07:28;98524.66;;;9.99;68.90
58018;BME280;43810;50.860;19.226;2023-04-22T05:09:54;98520.13;;;10.33;65.43
58018;BME280;43810;50.860;19.226;2023-04-22T05:12:20;98504.94;;;10.66;64.80
58018;BME280;43810;50.860;19.226;2023-04-22T05:14:45;98508.28;;;10.88;64.72
58018;BME280;43810;50.860;19.226;2023-04-22T05:17:12;98513.06;;;11.19;62.54
58018;BME280;43810;50.860;19.226;2023-04-22T05:19:38;98509.94;;;11.41;66.54
58018;BME280;43810;50.860;19.226;2023-04-22T05:22:06;98511.91;;;11.68;66.33
58018;BME280;43810;50.860;19.226;2023-04-22T05:24:31;98511.91;;;11.68;66.45
58018;BME280;43810;50.860;19.226;2023-04-22T05:26:58;98520.00;;;12.00;63.54
58018;BME280;43810;50.860;19.226;2023-04-22T05:29:24;98514.91;;;12.07;63.07
58018;BME280;43810;50.860;19.226;2023-04-22T05:31:50;98517.09;;;12.33;62.29
58018;BME280;43810;50.860;19.226;2023-04-22T05:34:15;98506.31;;;12.57;60.37
58018;BME280;43810;50.860;19.226;2023-04-22T05:36:41;98512.81;;;12.87;59.21
58018;BME280;43810;50.860;19.226;2023-04-22T05:39:07;98521.94;;;12.86;56.51
58018;BME280;43810;50.860;19.226;2023-04-22T05:41:33;98519.25;;;13.18;56.65
58018;BME280;43810;50.860;19.226;2023-04-22T05:43:59;98521.28;;;13.24;54.61
58018;BME280;43810;50.860;19.226;2023-04-22T05:46:25;98513.03;;;13.45;53.82
58018;BME280;43810;50.860;19.226;2023-04-22T05:48:51;98517.53;;;13.60;52.70
58018;BME280;43810;50.860;19.226;2023-04-22T05:51:17;98519.72;;;13.55;53.49
58018;BME280;43810;50.860;19.226;2023-04-22T05:53:42;98516.91;;;13.67;55.22
58018;BME280;43810;50.860;19.226;2023-04-22T05:56:08;98523.03;;;13.87;54.38
58018;BME280;43810;50.860;19.226;2023-04-22T05:58:36;98522.94;;;14.18;53.48
58018;BME280;43810;50.860;19.226;2023-04-22T06:01:02;98515.22;;;14.55;55.02
58018;BME280;43810;50.860;19.226;2023-04-22T06:03:28;98514.34;;;14.93;54.27
58018;BME280;43810;50.860;19.226;2023-04-22T06:05:54;98517.75;;;15.17;53.27
58018;BME280;43810;50.860;19.226;2023-04-22T06:08:20;98517.19;;;15.04;51.42
58018;BME280;43810;50.860;19.226;2023-04-22T06:10:46;98514.66;;;15.14;49.50
58018;BME280;43810;50.860;19.226;2023-04-22T06:13:12;98517.59;;;15.32;47.63
58018;BME280;43810;50.860;19.226;2023-04-22T06:15:38;98516.44;;;15.30;43.72
58018;BME280;43810;50.860;19.226;2023-04-22T06:18:03;98516.22;;;15.16;45.08
58018;BME280;43810;50.860;19.226;2023-04-22T06:20:29;98517.56;;;15.29;46.20
58018;BME280;43810;50.860;19.226;2023-04-22T06:22:57;98516.00;;;15.51;46.86
58018;BME280;43810;50.860;19.226;2023-04-22T06:25:23;98526.44;;;15.59;48.07
58018;BME280;43810;50.860;19.226;2023-04-22T06:27:49;98521.78;;;15.56;50.27
58018;BME280;43810;50.860;19.226;2023-04-22T06:30:25;98522.16;;;15.55;50.48
58018;BME280;43810;50.860;19.226;2023-04-22T06:32:51;98522.84;;;15.78;50.67
58018;BME280;43810;50.860;19.226;2023-04-22T06:35:20;98516.66;;;16.04;50.32
58018;BME280;43810;50.860;19.226;2023-04-22T06:37:47;98522.38;;;16.02;47.27
58018;BME280;43810;50.860;19.226;2023-04-22T06:40:14;98521.13;;;16.26;46.70
58018;BME280;43810;50.860;19.226;2023-04-22T06:42:40;98519.78;;;16.46;46.34
58018;BME280;43810;50.860;19.226;2023-04-22T06:45:06;98516.66;;;16.74;46.99
58018;BME280;43810;50.860;19.226;2023-04-22T06:47:40;98523.50;;;16.68;46.71
58018;BME280;43810;50.860;19.226;2023-04-22T06:50:07;98516.78;;;16.88;47.01
58018;BME280;43810;50.860;19.226;2023-04-22T06:52:34;98528.81;;;17.09;47.68
58018;BME280;43810;50.860;19.226;2023-04-22T06:55:00;98517.38;;;17.15;44.35
58018;BME280;43810;50.860;19.226;2023-04-22T06:57:28;98527.03;;;17.27;47.11
58018;BME280;43810;50.860;19.226;2023-04-22T06:59:54;98514.84;;;17.37;41.07
58018;BME280;43810;50.860;19.226;2023-04-22T07:02:20;98517.53;;;17.40;45.48
58018;BME280;43810;50.860;19.226;2023-04-22T07:04:46;98519.56;;;17.57;40.06
58018;BME280;43810;50.860;19.226;2023-04-22T07:07:12;98523.94;;;17.80;39.42
58018;BME280;43810;50.860;19.226;2023-04-22T07:09:38;98528.69;;;18.15;37.37
58018;BME280;43810;50.860;19.226;2023-04-22T07:12:04;98526.09;;;18.50;39.06
58018;BME280;43810;50.860;19.226;2023-04-22T07:14:30;98530.34;;;18.58;41.83
58018;BME280;43810;50.860;19.226;2023-04-22T07:16:58;98538.38;;;18.37;40.48
58018;BME280;43810;50.860;19.226;2023-04-22T07:19:24;98526.09;;;18.50;39.91
58018;BME280;43810;50.860;19.226;2023-04-22T07:21:50;98526.09;;;18.57;38.17
58018;BME280;43810;50.860;19.226;2023-04-22T07:24:16;98536.94;;;18.82;37.25
58018;BME280;43810;50.860;19.226;2023-04-22T07:26:43;98527.72;;;19.22;38.53
58018;BME280;43810;50.860;19.226;2023-04-22T07:29:08;98537.69;;;19.46;36.97
58018;BME280;43810;50.860;19.226;2023-04-22T07:31:35;98530.00;;;19.38;35.63
58018;BME280;43810;50.860;19.226;2023-04-22T07:34:01;98520.75;;;19.64;36.37
58018;BME280;43810;50.860;19.226;2023-04-22T07:36:27;98522.28;;;19.51;33.19
58018;BME280;43810;50.860;19.226;2023-04-22T07:38:53;98523.03;;;19.76;34.14
58018;BME280;43810;50.860;19.226;2023-04-22T07:41:19;98520.72;;;19.78;37.49
58018;BME280;43810;50.860;19.226;2023-04-22T07:43:45;98521.34;;;20.10;33.02
58018;BME280;43810;50.860;19.226;2023-04-22T07:46:11;98523.28;;;20.06;35.08
58018;BME280;43810;50.860;19.226;2023-04-22T07:48:36;98514.19;;;19.68;35.51
58018;BME280;43810;50.860;19.226;2023-04-22T07:51:03;98517.59;;;19.90;31.55
58018;BME280;43810;50.860;19.226;2023-04-22T07:53:29;98514.81;;;20.08;30.53
58018;BME280;43810;50.860;19.226;2023-04-22T07:55:55;98520.53;;;20.24;30.96
58018;BME280;43810;50.860;19.226;2023-04-22T07:58:20;98520.75;;;20.55;30.38
58018;BME280;43810;50.860;19.226;2023-04-22T08:00:46;98524.84;;;20.73;31.74
58018;BME280;43810;50.860;19.226;2023-04-22T08:03:12;98518.72;;;20.69;30.39
58018;BME280;43810;50.860;19.226;2023-04-22T08:05:38;98520.41;;;20.42;33.30
58018;BME280;43810;50.860;19.226;2023-04-22T08:08:04;98520.03;;;20.43;31.04
58018;BME280;43810;50.860;19.226;2023-04-22T08:10:31;98513.19;;;20.25;30.77
58018;BME280;43810;50.860;19.226;2023-04-22T08:12:57;98521.22;;;20.35;34.96
58018;BME280;43810;50.860;19.226;2023-04-22T08:15:23;98514.59;;;20.50;31.57
58018;BME280;43810;50.860;19.226;2023-04-22T08:17:49;98527.13;;;20.82;30.90
58018;BME280;43810;50.860;19.226;2023-04-22T08:20:15;98520.28;;;20.70;28.91
58018;BME280;43810;50.860;19.226;2023-04-22T08:22:43;98522.84;;;20.84;30.00
58018;BME280;43810;50.860;19.226;2023-04-22T08:25:09;98526.47;;;20.67;29.85
58018;BME280;43810;50.860;19.226;2023-04-22T08:27:36;98513.34;;;20.69;29.07
58018;BME280;43810;50.860;19.226;2023-04-22T08:30:03;98515.78;;;20.46;30.08
58018;BME280;43810;50.860;19.226;2023-04-22T08:32:29;98519.44;;;20.07;28.27
58018;BME280;43810;50.860;19.226;2023-04-22T08:34:55;98522.25;;;19.75;29.45
58018;BME280;43810;50.860;19.226;2023-04-22T08:37:20;98519.97;;;19.56;34.41
58018;BME280;43810;50.860;19.226;2023-04-22T08:39:46;98524.22;;;19.54;30.47
58018;BME280;43810;50.860;19.226;2023-04-22T08:42:13;98513.84;;;19.27;31.96
58018;BME280;43810;50.860;19.226;2023-04-22T08:44:40;98511.94;;;19.31;36.78
58018;BME280;43810;50.860;19.226;2023-04-22T08:47:07;98519.66;;;19.22;32.74
58018;BME280;43810;50.860;19.226;2023-04-22T08:49:34;98519.19;;;19.56;33.81
58018;BME280;43810;50.860;19.226;2023-04-22T08:52:03;98512.13;;;20.04;31.03
58018;BME280;43810;50.860;19.226;2023-04-22T08:54:29;98503.00;;;19.70;32.03
58018;BME280;43810;50.860;19.226;2023-04-22T08:56:55;98523.03;;;19.48;29.48
58018;BME280;43810;50.860;19.226;2023-04-22T08:59:21;98507.63;;;19.76;32.84
58018;BME280;43810;50.860;19.226;2023-04-22T09:01:51;98512.38;;;20.35;34.02
58018;BME280;43810;50.860;19.226;2023-04-22T09:04:18;98507.94;;;20.69;31.15
58018;BME280;43810;50.860;19.226;2023-04-22T09:06:44;98510.88;;;20.85;32.80
58018;BME280;43810;50.860;19.226;2023-04-22T09:09:10;98511.44;;;20.63;31.66
58018;BME280;43810;50.860;19.226;2023-04-22T09:11:36;98508.56;;;20.87;32.22
58018;BME280;43810;50.860;19.226;2023-04-22T09:14:03;98506.41;;;20.68;31.96
58018;BME280;43810;50.860;19.226;2023-04-22T09:16:29;98505.22;;;20.69;30.53
58018;BME280;43810;50.860;19.226;2023-04-22T09:18:57;98506.53;;;20.43;29.88
58018;BME280;43810;50.860;19.226;2023-04-22T09:21:26;98500.03;;;20.34;31.06
58018;BME280;43810;50.860;19.226;2023-04-22T09:23:54;98502.09;;;20.12;33.21
58018;BME280;43810;50.860;19.226;2023-04-22T09:26:22;98505.78;;;20.39;30.87
58018;BME280;43810;50.860;19.226;2023-04-22T09:28:55;98487.13;;;19.93;31.50
58018;BME280;43810;50.860;19.226;2023-04-22T09:31:28;98488.81;;;20.39;32.34
58018;BME280;43810;50.860;19.226;2023-04-22T09:33:59;98486.78;;;21.09;32.40
58018;BME280;43810;50.860;19.226;2023-04-22T09:36:30;98491.88;;;21.44;30.57
58018;BME280;43810;50.860;19.226;2023-04-22T09:39:06;98494.66;;;21.71;32.63
58018;BME280;43810;50.860;19.226;2023-04-22T09:41:35;98486.78;;;21.84;31.35
58018;BME280;43810;50.860;19.226;2023-04-22T09:44:02;98489.63;;;21.73;31.86
58018;BME280;43810;50.860;19.226;2023-04-22T09:46:30;98481.53;;;22.04;31.12
58018;BME280;43810;50.860;19.226;2023-04-22T09:48:59;98482.69;;;21.31;30.28
58018;BME280;43810;50.860;19.226;2023-04-22T09:51:26;98477.22;;;20.97;31.35
58018;BME280;43810;50.860;19.226;2023-04-22T09:53:57;98484.25;;;20.87;30.20
58018;BME280;43810;50.860;19.226;2023-04-22T09:56:44;98475.53;;;20.69;29.15
58018;BME280;43810;50.860;19.226;2023-04-22T09:59:12;98477.00;;;20.77;31.88
58018;BME280;43810;50.860;19.226;2023-04-22T10:01:39;98478.63;;;20.68;30.43
58018;BME280;43810;50.860;19.226;2023-04-22T10:04:09;98469.22;;;20.86;32.51
58018;BME280;43810;50.860;19.226;2023-04-22T10:06:36;98467.94;;;20.53;28.46
58018;BME280;43810;50.860;19.226;2023-04-22T10:09:03;98460.59;;;20.54;31.41
58018;BME280;43810;50.860;19.226;2023-04-22T10:11:30;98467.44;;;20.69;30.88
58018;BME280;43810;50.860;19.226;2023-04-22T10:13:57;98468.22;;;20.70;31.69
58018;BME280;43810;50.860;19.226;2023-04-22T10:16:24;98462.19;;;20.48;29.29
58018;BME280;43810;50.860;19.226;2023-04-22T10:19:00;98458.34;;;20.42;30.03
58018;BME280;43810;50.860;19.226;2023-04-22T10:21:29;98460.25;;;20.45;30.66
58018;BME280;43810;50.860;19.226;2023-04-22T10:23:59;98450.31;;;20.35;34.71
58018;BME280;43810;50.860;19.226;2023-04-22T10:29:06;98447.00;;;20.68;30.89
58018;BME280;43810;50.860;19.226;2023-04-22T10:31:36;98445.97;;;20.96;30.04
58018;BME280;43810;50.860;19.226;2023-04-22T10:34:13;98446.41;;;20.39;30.96
58018;BME280;43810;50.860;19.226;2023-04-22T10:36:59;98438.13;;;20.12;34.86
58018;BME280;43810;50.860;19.226;2023-04-22T10:39:27;98436.03;;;20.38;33.57
58018;BME280;43810;50.860;19.226;2023-04-22T10:41:57;98437.91;;;20.44;33.03
58018;BME280;43810;50.860;19.226;2023-04-22T10:44:46;98439.91;;;20.37;32.97
58018;BME280;43810;50.860;19.226;2023-04-22T10:47:23;98433.97;;;20.60;31.75
58018;BME280;43810;50.860;19.226;2023-04-22T10:49:50;98441.38;;;20.48;31.53
58018;BME280;43810;50.860;19.226;2023-04-22T10:52:28;98433.28;;;20.45;31.21
58018;BME280;43810;50.860;19.226;2023-04-22T10:54:55;98437.88;;;20.51;33.13
58018;BME280;43810;50.860;19.226;2023-04-22T10:57:28;98428.91;;;20.62;32.63
58018;BME280;43810;50.860;19.226;2023-04-22T10:59:59;98433.13;;;20.66;32.72
58018;BME280;43810;50.860;19.226;2023-04-22T11:02:25;98430.69;;;20.82;33.64
58018;BME280;43810;50.860;19.226;2023-04-22T11:05:16;98428.22;;;20.99;30.53
58018;BME280;43810;50.860;19.226;2023-04-22T11:07:43;98422.94;;;21.25;32.53
58018;BME280;43810;50.860;19.226;2023-04-22T11:10:09;98422.88;;;20.95;30.02
58018;BME280;43810;50.860;19.226;2023-04-22T11:12:41;98421.00;;;21.26;31.49
58018;BME280;43810;50.860;19.226;2023-04-22T11:17:35;98420.06;;;21.06;30.95
58018;BME280;43810;50.860;19.226;2023-04-22T11:20:03;98423.00;;;20.77;32.73
58018;BME280;43810;50.860;19.226;2023-04-22T11:22:40;98417.50;;;20.88;29.02
58018;BME280;43810;50.860;19.226;2023-04-22T11:25:07;98418.56;;;21.01;27.74
58018;BME280;43810;50.860;19.226;2023-04-22T11:27:35;98407.97;;;20.80;27.78
58018;BME280;43810;50.860;19.226;2023-04-22T11:30:05;98411.31;;;20.95;29.60
58018;BME280;43810;50.860;19.226;2023-04-22T11:32:33;98402.59;;;21.14;30.59
58018;BME280;43810;50.860;19.226;2023-04-22T11:35:03;98408.94;;;21.34;28.79
58018;BME280;43810;50.860;19.226;2023-04-22T11:37:29;98396.69;;;21.26;29.08
58018;BME280;43810;50.860;19.226;2023-04-22T11:39:59;98404.59;;;21.44;33.37
58018;BME280;43810;50.860;19.226;2023-04-22T11:42:26;98401.97;;;21.71;29.61
58018;BME280;43810;50.860;19.226;2023-04-22T11:44:52;98408.13;;;21.03;27.01
58018;BME280;43810;50.860;19.226;2023-04-22T11:47:17;98394.25;;;20.60;31.28
58018;BME280;43810;50.860;19.226;2023-04-22T11:50:13;98392.13;;;20.82;31.21
58018;BME280;43810;50.860;19.226;2023-04-22T11:55:25;98390.53;;;20.84;30.46
58018;BME280;43810;50.860;19.226;2023-04-22T11:57:59;98384.50;;;21.11;28.51
58018;BME280;43810;50.860;19.226;2023-04-22T12:00:32;98392.91;;;20.82;30.55
58018;BME280;43810;50.860;19.226;2023-04-22T12:03:00;98386.09;;;20.67;28.67
58018;BME280;43810;50.860;19.226;2023-04-22T12:05:44;98385.94;;;20.37;27.12
58018;BME280;43810;50.860;19.226;2023-04-22T12:08:15;98385.34;;;20.63;27.64
58018;BME280;43810;50.860;19.226;2023-04-22T12:15:51;98388.25;;;22.12;29.07
58018;BME280;43810;50.860;19.226;2023-04-22T12:21:13;98387.81;;;22.67;30.57
58018;BME280;43810;50.860;19.226;2023-04-22T12:23:43;98378.97;;;22.63;27.90
58018;BME280;43810;50.860;19.226;2023-04-22T12:26:10;98376.41;;;22.56;23.57
58018;BME280;43810;50.860;19.226;2023-04-22T12:28:36;98375.56;;;22.59;25.57
58018;BME280;43810;50.860;19.226;2023-04-22T12:31:02;98370.25;;;23.18;27.36
58018;BME280;43810;50.860;19.226;2023-04-22T12:33:28;98369.38;;;23.25;23.63
58018;BME280;43810;50.860;19.226;2023-04-22T12:35:54;98363.38;;;23.33;28.47
58018;BME280;43810;50.860;19.226;2023-04-22T12:38:20;98363.50;;;24.02;26.70
58018;BME280;43810;50.860;19.226;2023-04-22T12:40:46;98349.59;;;24.65;24.31
58018;BME280;43810;50.860;19.226;2023-04-22T12:43:11;98346.47;;;24.18;23.34
58018;BME280;43810;50.860;19.226;2023-04-22T12:45:37;98344.31;;;23.73;27.03
58018;BME280;43810;50.860;19.226;2023-04-22T12:48:03;98357.44;;;23.78;24.80
58018;BME280;43810;50.860;19.226;2023-04-22T12:50:29;98344.16;;;24.00;22.86
58018;BME280;43810;50.860;19.226;2023-04-22T12:52:55;98340.53;;;24.06;26.29
58018;BME280;43810;50.860;19.226;2023-04-22T12:55:21;98344.00;;;23.15;25.75
58018;BME280;43810;50.860;19.226;2023-04-22T12:57:48;98334.41;;;23.30;25.24
58018;BME280;43810;50.860;19.226;2023-04-22T13:00:14;98337.94;;;23.47;26.46
58018;BME280;43810;50.860;19.226;2023-04-22T13:02:46;98328.81;;;23.57;24.39
58018;BME280;43810;50.860;19.226;2023-04-22T13:05:13;98324.72;;;23.49;27.91
58018;BME280;43810;50.860;19.226;2023-04-22T13:07:39;98328.97;;;23.66;28.78
58018;BME280;43810;50.860;19.226;2023-04-22T13:10:08;98324.28;;;23.87;24.81
58018;BME280;43810;50.860;19.226;2023-04-22T13:12:34;98321.34;;;24.14;26.18